Ana Sayfa
METAR-TAF:

METAR-TAF

Havaalanları :

Nalçik Havalimanı

Nalçik, Rusya

Enlem: 43-30-46N, Boylam: 043-38-12E, yükseklik: 445 m

Güncel hava durumu gözlemi

Rapor saat 00:00 UTC de 20 dakika önce yapıldı.
Sakin rüzgar
Sıcaklık 22°C
Nem 73%
Basınç 1015 hPa
Görüş mesafesi 10 km veya daha fazla
az bulutlu

METAR: URMN 210000Z 00000MPS 9999 FEW/// 22/17 Q1015 R24/////// NOSIG RMK QFE725

Saat: 03:20 (00:20 UTC)

Tahmin

Rapor saat 23:00 UTC de 1 saat ve 20 dakika önce yapıldı.
Ayın 21'si saat 00 UTC'den ayın 21'si saat 09 UTC'ye kadar geçerli Tahmin
Rüzgar batı/güneybatıdan 6 kt
Görüş mesafesi 10 km veya daha fazla
3000 ft yükseklikte parçalı bulutlu

TAF: URMN 202300Z 2100/2109 24003MPS 9999 SCT030

4.000'den fazla havaalanı için hava durumu gözlemleri ve tahminleri (METAR ve TAF raporları).

Kullanılabilir istasyonlar harita üzerinde sarı ve kırmızı noktalarla gösterilir.

İstasyonun adını görmek için fareyi noktanın üzerinde gezdirin.

Sonrasında hava gözlem ve tahminlerini görmek için tıklayın.

Haritayı değiştirmek için: yaklaştırmak için siyah artı işaretli yeşil düğmeye ve uzaklaştırmak için de eksi işaretli düğmeye hızla tıklayın; bitişik haritalar için yeşil okları kullanın.


METAR-TAF: